Time;durP1;ratioP1;P1;durP2;ratioP2;P2;SDS_P1;SDS_P2;PMS_P1;PMS_P2;Temp;Humidity;BMP_temperature;BMP_pressure;BME280_temperature;BME280_humidity;BME280_pressure;Samples;Min_cycle;Max_cycle;Signal;HPM_P1;HPM_P2
2023/04/17 00:00:15;;;;;;;27.63;15.45;;;;;;;4.21;100.00;101612.94;4917731;29;20044;-78
2023/04/17 00:02:43;;;;;;;25.23;14.27;;;;;;;4.22;100.00;101612.03;4918521;29;20055;-77
2023/04/17 00:05:10;;;;;;;25.05;14.45;;;;;;;4.22;100.00;101620.84;4926147;29;20048;-71
2023/04/17 00:07:37;;;;;;;23.67;15.50;;;;;;;4.24;100.00;101618.94;4925414;29;20052;-70
2023/04/17 00:10:06;;;;;;;24.20;15.13;;;;;;;4.18;100.00;101621.13;4925933;29;20134;-71
2023/04/17 00:12:33;;;;;;;24.90;14.80;;;;;;;4.13;100.00;101615.25;4925695;29;20063;-69
2023/04/17 00:15:00;;;;;;;23.85;14.82;;;;;;;4.14;100.00;101617.81;4926070;29;20079;-69
2023/04/17 00:17:27;;;;;;;21.35;14.98;;;;;;;4.16;100.00;101618.56;4926179;29;20048;-70
2023/04/17 00:19:53;;;;;;;21.50;15.30;;;;;;;4.10;100.00;101622.47;4925926;29;20052;-69
2023/04/17 00:22:20;;;;;;;26.73;16.45;;;;;;;4.15;100.00;101614.22;4925824;29;20044;-69
2023/04/17 00:24:46;;;;;;;21.85;14.73;;;;;;;4.14;100.00;101608.97;4925704;29;20436;-69
2023/04/17 00:27:13;;;;;;;25.98;16.02;;;;;;;4.18;100.00;101607.84;4926304;29;20527;-73
2023/04/17 00:29:39;;;;;;;29.13;15.68;;;;;;;4.09;100.00;101615.44;4926072;29;20429;-71
2023/04/17 00:32:06;;;;;;;26.65;16.05;;;;;;;4.08;100.00;101618.19;4925843;29;20130;-69
2023/04/17 00:34:33;;;;;;;22.90;14.90;;;;;;;4.09;100.00;101619.91;4926020;29;20060;-69
2023/04/17 00:36:59;;;;;;;25.30;15.18;;;;;;;4.06;100.00;101617.44;4925541;29;20139;-70
2023/04/17 00:39:26;;;;;;;24.52;14.88;;;;;;;4.05;100.00;101618.38;4926970;29;20051;-71
2023/04/17 00:41:53;;;;;;;30.52;15.55;;;;;;;4.07;100.00;101621.78;4926271;29;20071;-70
2023/04/17 00:44:19;;;;;;;23.95;15.30;;;;;;;4.10;100.00;101617.16;4926064;29;20082;-71
2023/04/17 00:46:46;;;;;;;22.65;15.90;;;;;;;4.04;100.00;101617.53;4928578;29;20062;-74
2023/04/17 00:49:13;;;;;;;22.88;15.57;;;;;;;4.02;100.00;101626.53;4928226;29;20401;-70
2023/04/17 00:51:39;;;;;;;26.35;16.15;;;;;;;4.08;100.00;101624.34;4926659;29;20040;-69
2023/04/17 00:54:07;;;;;;;23.30;14.98;;;;;;;4.04;100.00;101619.34;4927555;29;20116;-71
2023/04/17 00:56:33;;;;;;;28.63;15.95;;;;;;;4.08;100.00;101624.34;4927988;29;20048;-70
2023/04/17 00:59:02;;;;;;;23.65;14.82;;;;;;;4.02;100.00;101621.22;4927979;29;20060;-70
2023/04/17 01:01:29;;;;;;;25.33;15.27;;;;;;;4.06;100.00;101625.41;4928176;29;20047;-70
2023/04/17 01:03:58;;;;;;;22.67;15.63;;;;;;;4.03;100.00;101626.44;4927704;29;20047;-70
2023/04/17 01:07:11;;;;;;;25.58;15.18;;;;;;;4.01;100.00;101624.84;4927993;29;20076;-73
2023/04/17 01:09:38;;;;;;;22.90;15.05;;;;;;;4.04;100.00;101622.84;4927645;29;20143;-70
2023/04/17 01:12:18;;;;;;;24.40;14.93;;;;;;;3.97;100.00;101618.88;4927817;29;20064;-70
2023/04/17 01:14:45;;;;;;;23.83;14.52;;;;;;;3.94;100.00;101623.53;4927927;29;20059;-71
2023/04/17 01:17:14;;;;;;;22.75;14.82;;;;;;;3.97;100.00;101626.84;4928118;29;20107;-71
2023/04/17 01:19:41;;;;;;;23.85;15.30;;;;;;;3.91;100.00;101626.38;4927465;29;20108;-70
2023/04/17 01:22:07;;;;;;;22.73;14.40;;;;;;;3.85;100.00;101625.78;4927852;29;20134;-72
2023/04/17 01:24:35;;;;;;;27.60;14.88;;;;;;;3.90;100.00;101625.50;4927358;29;20063;-71
2023/04/17 01:27:03;;;;;;;22.42;13.73;;;;;;;3.88;100.00;101624.75;4927319;29;20061;-71
2023/04/17 01:29:29;;;;;;;28.83;15.63;;;;;;;3.85;100.00;101625.78;4926916;29;20054;-71
2023/04/17 01:31:56;;;;;;;23.35;14.35;;;;;;;3.89;100.00;101622.94;4926873;29;20087;-71
2023/04/17 01:34:22;;;;;;;23.70;14.27;;;;;;;3.81;100.00;101616.31;4928700;29;20071;-71
2023/04/17 01:36:49;;;;;;;22.52;14.63;;;;;;;3.82;100.00;101623.31;4927256;29;20044;-71
2023/04/17 01:39:16;;;;;;;23.63;14.93;;;;;;;3.83;100.00;101627.69;4927766;29;20416;-73
2023/04/17 01:41:43;;;;;;;25.67;15.27;;;;;;;3.80;100.00;101625.22;4927065;29;20060;-72
2023/04/17 01:44:09;;;;;;;25.75;14.55;;;;;;;3.85;100.00;101628.44;4918192;29;20051;-71
2023/04/17 01:46:36;;;;;;;28.83;15.52;;;;;;;3.83;100.00;101627.69;4911899;29;20064;-71
2023/04/17 01:49:03;;;;;;;28.73;15.30;;;;;;;3.83;100.00;101627.69;4925111;29;20052;-71
2023/04/17 01:51:30;;;;;;;24.27;15.48;;;;;;;3.78;100.00;101627.09;4926799;29;20055;-71
2023/04/17 01:53:56;;;;;;;22.02;14.40;;;;;;;3.74;100.00;101627.41;4926995;29;20052;-71
2023/04/17 01:56:22;;;;;;;26.20;15.02;;;;;;;3.74;100.00;101627.41;4910457;29;20052;-72
2023/04/17 01:58:50;;;;;;;30.15;15.65;;;;;;;3.70;100.00;101629.38;4927880;29;20134;-72
2023/04/17 02:01:17;;;;;;;24.77;15.95;;;;;;;3.66;100.00;101622.56;4928743;29;20112;-71
2023/04/17 02:03:43;;;;;;;34.03;15.63;;;;;;;3.62;100.00;101636.97;4928226;29;20103;-72
2023/04/17 02:06:10;;;;;;;26.30;15.27;;;;;;;3.61;100.00;101633.44;4927223;29;20458;-71
2023/04/17 02:08:37;;;;;;;25.20;15.82;;;;;;;3.63;100.00;101638.66;4926843;29;20052;-71
2023/04/17 02:11:03;;;;;;;28.58;15.38;;;;;;;3.61;100.00;101635.22;4926982;29;20060;-71
2023/04/17 02:13:30;;;;;;;24.85;15.48;;;;;;;3.61;100.00;101640.53;4926128;29;20082;-71
2023/04/17 02:15:57;;;;;;;23.70;15.30;;;;;;;3.60;100.00;101644.16;4925771;29;20497;-71
2023/04/17 02:18:23;;;;;;;31.17;15.25;;;;;;;3.50;100.00;101637.69;4925753;29;20107;-72
2023/04/17 02:20:50;;;;;;;27.40;14.73;;;;;;;3.49;100.00;101643.94;4926633;29;20145;-71
2023/04/17 02:23:16;;;;;;;28.50;15.77;;;;;;;3.44;100.00;101646.00;4927132;29;20394;-71
2023/04/17 02:25:43;;;;;;;29.30;16.13;;;;;;;3.35;100.00;101650.94;4926034;29;20055;-72
2023/04/17 02:28:09;;;;;;;23.15;14.93;;;;;;;3.29;100.00;101648.63;4926269;29;20108;-71
2023/04/17 02:30:36;;;;;;;28.30;15.93;;;;;;;3.31;100.00;101646.75;4926656;29;20056;-71
2023/04/17 02:33:03;;;;;;;25.02;15.05;;;;;;;3.33;100.00;101647.50;4926828;29;20076;-71
2023/04/17 02:35:30;;;;;;;28.33;15.57;;;;;;;3.30;100.00;101649.47;4927239;29;20048;-72
2023/04/17 02:37:57;;;;;;;25.50;16.00;;;;;;;3.28;100.00;101652.22;4928196;29;20107;-71
2023/04/17 02:40:23;;;;;;;26.75;16.33;;;;;;;3.31;100.00;101654.72;4926396;29;20051;-71
2023/04/17 02:42:50;;;;;;;23.92;15.57;;;;;;;3.31;100.00;101649.41;4928144;29;20058;-71
2023/04/17 02:45:16;;;;;;;30.92;16.48;;;;;;;3.19;100.00;101643.97;4921072;29;20060;-71
2023/04/17 02:47:43;;;;;;;28.83;16.15;;;;;;;3.29;100.00;101656.59;4927292;29;20055;-72
2023/04/17 02:50:10;;;;;;;23.80;14.90;;;;;;;3.22;100.00;101655.22;4929092;29;20048;-71
2023/04/17 02:52:38;;;;;;;28.85;15.77;;;;;;;3.17;100.00;101651.13;4915163;29;20443;-71
2023/04/17 02:55:05;;;;;;;28.52;17.33;;;;;;;3.13;100.00;101650.47;4927605;29;20048;-71
2023/04/17 02:57:32;;;;;;;28.98;16.38;;;;;;;3.09;100.00;101656.88;4927630;29;20055;-71
2023/04/17 03:00:00;;;;;;;26.60;16.17;;;;;;;3.09;100.00;101654.22;4927024;29;20107;-71
2023/04/17 03:02:29;;;;;;;29.58;16.02;;;;;;;3.07;100.00;101656.13;4907742;29;20048;-75
2023/04/17 03:04:56;;;;;;;30.85;16.63;;;;;;;3.01;100.00;101659.13;4913022;29;20071;-78
2023/04/17 03:07:22;;;;;;;26.85;16.65;;;;;;;3.07;100.00;101657.00;4904194;29;20497;-78
2023/04/17 03:09:52;;;;;;;28.13;15.00;;;;;;;3.04;100.00;101661.63;4913580;29;20104;-76
2023/04/17 03:12:19;;;;;;;27.38;16.88;;;;;;;2.98;100.00;101656.66;4912994;29;20048;-77
2023/04/17 03:14:45;;;;;;;25.65;17.25;;;;;;;3.02;100.00;101667.00;4912174;29;20052;-79
2023/04/17 03:17:13;;;;;;;23.77;15.82;;;;;;;2.98;100.00;101668.13;4913589;29;20048;-79
2023/04/17 03:19:39;;;;;;;32.45;16.77;;;;;;;3.02;100.00;101674.09;4910824;29;20138;-77
2023/04/17 03:22:06;;;;;;;30.77;17.10;;;;;;;2.99;100.00;101671.63;4913845;29;20528;-78
2023/04/17 03:24:32;;;;;;;30.10;15.35;;;;;;;2.84;100.00;101676.84;4911163;29;20139;-77
2023/04/17 03:26:59;;;;;;;31.77;15.80;;;;;;;2.90;100.00;101673.00;4913414;29;20052;-77
2023/04/17 03:29:26;;;;;;;29.35;16.65;;;;;;;2.93;100.00;101677.25;4913885;29;20051;-79
2023/04/17 03:31:52;;;;;;;28.98;16.80;;;;;;;2.88;100.00;101690.78;4913286;29;20059;-75
2023/04/17 03:34:20;;;;;;;35.97;17.17;;;;;;;2.89;100.00;101689.81;4913240;29;20052;-78
2023/04/17 03:36:47;;;;;;;27.42;16.73;;;;;;;2.95;100.00;101686.84;4914548;29;20052;-77
2023/04/17 03:39:14;;;;;;;29.50;17.25;;;;;;;2.93;100.00;101687.84;4913770;29;20056;-77
2023/04/17 03:41:41;;;;;;;28.77;17.38;;;;;;;2.90;100.00;101680.97;4912915;29;20052;-78
2023/04/17 03:44:08;;;;;;;29.05;17.65;;;;;;;2.93;100.00;101690.50;4914097;29;20079;-80
2023/04/17 03:46:36;;;;;;;28.58;16.40;;;;;;;2.93;100.00;101690.50;4914005;29;20051;-78
2023/04/17 03:49:03;;;;;;;37.67;18.23;;;;;;;2.87;100.00;101692.59;4913156;29;20547;-78
2023/04/17 03:51:30;;;;;;;32.78;18.67;;;;;;;2.83;100.00;101698.16;4912405;29;20482;-78
2023/04/17 03:53:57;;;;;;;31.23;18.50;;;;;;;2.80;100.00;101696.53;4913619;29;20127;-77
2023/04/17 03:56:24;;;;;;;31.92;18.00;;;;;;;2.81;100.00;101692.06;4914570;29;20048;-73
2023/04/17 03:58:51;;;;;;;33.92;19.08;;;;;;;2.75;100.00;101701.19;4913558;29;20421;-72
2023/04/17 04:01:17;;;;;;;33.35;18.55;;;;;;;2.76;100.00;101697.63;4910948;29;20465;-72
2023/04/17 04:03:44;;;;;;;31.45;19.08;;;;;;;2.70;100.00;101691.81;4912162;29;20044;-73
2023/04/17 04:06:11;;;;;;;30.90;18.95;;;;;;;2.76;100.00;101708.25;4912345;29;20123;-72
2023/04/17 04:08:37;;;;;;;32.38;18.60;;;;;;;2.72;100.00;101713.78;4895713;29;20052;-72
2023/04/17 04:11:04;;;;;;;36.92;20.55;;;;;;;2.69;100.00;101706.88;4894023;29;20047;-72
2023/04/17 04:13:31;;;;;;;34.85;18.83;;;;;;;2.76;100.00;101712.69;4890848;29;20091;-72
2023/04/17 04:15:57;;;;;;;38.28;19.95;;;;;;;2.73;100.00;101712.84;4875459;29;20413;-72
2023/04/17 04:18:24;;;;;;;33.80;19.58;;;;;;;2.72;100.00;101712.00;4874968;29;20084;-72
2023/04/17 04:20:51;;;;;;;38.85;20.98;;;;;;;2.76;100.00;101721.47;4876083;29;20045;-72
2023/04/17 04:23:19;;;;;;;34.17;20.58;;;;;;;2.79;100.00;101713.38;4875646;29;20450;-72
2023/04/17 04:25:48;;;;;;;34.38;20.02;;;;;;;2.81;100.00;101715.91;4875948;29;20072;-72
2023/04/17 04:28:16;;;;;;;35.28;20.55;;;;;;;2.78;100.00;101716.94;4875594;29;20053;-71
2023/04/17 04:30:49;;;;;;;33.15;20.30;;;;;;;2.76;100.00;101715.34;4874860;29;20053;-72
2023/04/17 04:33:19;;;;;;;32.28;21.17;;;;;;;2.75;100.00;101718.91;4875901;29;20052;-71
2023/04/17 04:35:47;;;;;;;34.83;21.85;;;;;;;2.79;100.00;101715.13;4875133;29;20418;-72
2023/04/17 04:38:15;;;;;;;35.17;20.90;;;;;;;2.74;100.00;101718.06;4876563;29;20053;-72
2023/04/17 04:40:48;;;;;;;42.35;21.90;;;;;;;2.78;100.00;101716.94;4878375;29;20549;-72
2023/04/17 04:43:15;;;;;;;40.08;20.83;;;;;;;2.82;100.00;101709.66;4878751;29;20056;-72
2023/04/17 04:45:42;;;;;;;38.28;20.92;;;;;;;2.83;100.00;101728.16;4878362;29;20056;-72
2023/04/17 04:48:08;;;;;;;36.50;21.25;;;;;;;2.85;100.00;101723.59;4887324;29;20072;-72
2023/04/17 04:50:35;;;;;;;35.65;21.67;;;;;;;2.90;100.00;101723.38;4892911;29;20045;-71
2023/04/17 04:53:01;;;;;;;38.47;21.95;;;;;;;2.83;100.00;101724.66;4895912;29;20040;-72
2023/04/17 04:55:29;;;;;;;39.15;21.63;;;;;;;2.85;100.00;101730.72;4895675;29;20136;-72
2023/04/17 04:57:56;;;;;;;36.30;20.58;;;;;;;2.86;100.00;101733.28;4896491;29;20508;-73
2023/04/17 05:00:23;;;;;;;35.45;21.88;;;;;;;2.92;100.00;101726.75;4896981;29;20080;-72
2023/04/17 05:02:50;;;;;;;38.28;22.05;;;;;;;2.96;100.00;101735.41;4893589;29;20044;-71
2023/04/17 05:05:16;;;;;;;38.15;21.83;;;;;;;2.98;100.00;101736.19;4890869;29;20048;-71
2023/04/17 05:07:43;;;;;;;42.60;22.23;;;;;;;3.01;100.00;101736.88;4895943;29;20052;-71
2023/04/17 05:10:10;;;;;;;39.05;21.45;;;;;;;3.03;100.00;101736.75;4896237;29;20055;-72
2023/04/17 05:12:36;;;;;;;38.45;22.20;;;;;;;3.00;100.00;101747.56;4884147;29;20144;-71
2023/04/17 05:15:04;;;;;;;43.17;23.33;;;;;;;2.99;100.00;101744.03;4878043;29;20136;-72
2023/04/17 05:17:31;;;;;;;38.45;22.23;;;;;;;2.91;100.00;101749.78;4890606;29;20524;-72
2023/04/17 05:19:57;;;;;;;37.40;22.05;;;;;;;2.95;100.00;101752.25;4896350;29;20055;-71
2023/04/17 05:22:26;;;;;;;37.47;22.80;;;;;;;2.84;100.00;101745.75;4896314;29;20127;-71
2023/04/17 05:24:52;;;;;;;34.42;22.25;;;;;;;2.76;100.00;101761.22;4896661;29;20424;-71
2023/04/17 05:27:19;;;;;;;45.30;23.15;;;;;;;2.89;100.00;101756.97;4897436;29;20559;-70
2023/04/17 05:29:46;;;;;;;39.08;23.83;;;;;;;2.96;100.00;101761.91;4895429;29;20057;-71
2023/04/17 05:32:13;;;;;;;45.50;24.45;;;;;;;2.90;100.00;101766.63;4896789;29;20052;-72
2023/04/17 05:34:39;;;;;;;38.95;23.00;;;;;;;2.84;100.00;101766.97;4896681;29;20053;-70
2023/04/17 05:37:06;;;;;;;44.88;25.20;;;;;;;2.91;100.00;101768.31;4897434;29;20176;-73
2023/04/17 05:39:33;;;;;;;41.75;24.02;;;;;;;2.89;100.00;101767.56;4898241;29;20132;-73
2023/04/17 05:42:00;;;;;;;46.58;24.88;;;;;;;2.99;100.00;101775.84;4897087;29;20123;-73
2023/04/17 05:44:26;;;;;;;42.72;25.42;;;;;;;3.00;100.00;101766.13;4897579;29;20083;-74
2023/04/17 05:46:56;;;;;;;49.22;25.27;;;;;;;2.89;100.00;101774.66;4881796;29;20440;-76
2023/04/17 05:49:22;;;;;;;49.85;26.63;;;;;;;2.85;100.00;101776.59;4892640;29;20059;-75
2023/04/17 05:51:52;;;;;;;47.00;26.50;;;;;;;2.90;100.00;101781.69;4897052;29;20079;-76
2023/04/17 05:54:19;;;;;;;47.70;28.02;;;;;;;2.96;100.00;101785.75;4889292;29;20514;-75
2023/04/17 05:56:46;;;;;;;45.65;26.40;;;;;;;2.98;100.00;101779.44;4896901;29;20048;-75
2023/04/17 05:59:12;;;;;;;40.15;25.23;;;;;;;2.98;100.00;101779.44;4896420;29;20569;-75
2023/04/17 06:01:39;;;;;;;54.47;26.75;;;;;;;2.93;100.00;101785.94;4897394;29;20059;-75
2023/04/17 06:04:06;;;;;;;51.00;27.45;;;;;;;3.03;100.00;101797.75;4895968;29;20051;-76
2023/04/17 06:06:33;;;;;;;44.38;26.58;;;;;;;2.89;100.00;101790.53;4895407;29;20100;-75
2023/04/17 06:09:00;;;;;;;40.83;26.48;;;;;;;2.86;100.00;101781.00;4895398;29;20419;-75
2023/04/17 06:11:26;;;;;;;43.45;26.30;;;;;;;2.98;100.00;101783.91;4892090;29;20132;-76
2023/04/17 06:13:53;;;;;;;41.53;25.65;;;;;;;2.86;100.00;101782.78;4897427;29;20068;-76
2023/04/17 06:16:20;;;;;;;46.15;26.65;;;;;;;2.89;100.00;101794.09;4893292;29;20386;-76
2023/04/17 06:18:47;;;;;;;44.42;27.27;;;;;;;2.91;100.00;101791.34;4896534;29;20127;-76
2023/04/17 06:21:13;;;;;;;41.35;26.33;;;;;;;2.89;100.00;101796.72;4896607;29;20049;-76
2023/04/17 06:23:40;;;;;;;48.47;26.33;;;;;;;3.05;100.00;101801.16;4896008;29;20129;-76
2023/04/17 06:26:07;;;;;;;53.28;28.98;;;;;;;2.90;100.00;101802.88;4895732;29;20139;-76
2023/04/17 06:28:33;;;;;;;44.80;26.38;;;;;;;3.11;100.00;101796.38;4896199;29;20494;-76
2023/04/17 06:31:00;;;;;;;49.58;28.30;;;;;;;3.12;100.00;101803.41;4894178;29;20498;-75
2023/04/17 06:33:26;;;;;;;48.17;26.80;;;;;;;3.16;100.00;101806.72;4895572;29;20136;-76
2023/04/17 06:35:53;;;;;;;47.00;28.98;;;;;;;3.24;100.00;101808.94;4895461;29;20048;-75
2023/04/17 06:38:19;;;;;;;49.45;27.92;;;;;;;2.99;100.00;101806.81;4895483;29;20044;-75
2023/04/17 06:40:46;;;;;;;44.35;27.38;;;;;;;2.97;100.00;101809.56;4894807;29;20399;-75
2023/04/17 06:43:16;;;;;;;46.33;28.20;;;;;;;3.09;100.00;101808.00;4894897;29;20051;-75
2023/04/17 06:45:42;;;;;;;47.10;28.45;;;;;;;3.20;100.00;101804.75;4894831;29;20470;-76
2023/04/17 06:48:09;;;;;;;44.20;27.20;;;;;;;3.36;100.00;101811.78;4895788;29;20104;-76
2023/04/17 06:50:35;;;;;;;47.00;29.27;;;;;;;3.43;100.00;101816.75;4895210;29;20140;-76
2023/04/17 06:53:02;;;;;;;59.45;29.00;;;;;;;3.42;100.00;101815.88;4895560;29;20505;-76
2023/04/17 06:55:29;;;;;;;47.03;27.48;;;;;;;3.58;100.00;101814.03;4878844;29;20422;-76
2023/04/17 06:57:55;;;;;;;47.70;26.92;;;;;;;3.73;100.00;101822.09;4896139;29;20052;-75
2023/04/17 07:00:22;;;;;;;44.30;26.80;;;;;;;3.67;100.00;101825.94;4896090;29;20048;-76
2023/04/17 07:02:49;;;;;;;46.13;27.08;;;;;;;3.74;100.00;101816.69;4908645;29;20138;-75
2023/04/17 07:05:16;;;;;;;44.88;27.45;;;;;;;4.02;100.00;101820.38;4909567;29;20055;-75
2023/04/17 07:07:42;;;;;;;51.55;28.73;;;;;;;3.99;100.00;101821.41;4914602;29;20051;-75
2023/04/17 07:10:09;;;;;;;47.72;27.27;;;;;;;3.82;100.00;101834.81;4914330;29;20055;-75
2023/04/17 07:12:36;;;;;;;48.70;28.85;;;;;;;3.99;100.00;101837.34;4913995;29;20048;-75
2023/04/17 07:15:03;;;;;;;46.92;28.60;;;;;;;3.92;100.00;101835.13;4904739;29;20055;-75
2023/04/17 07:17:29;;;;;;;50.42;30.13;;;;;;;3.70;100.00;101836.38;4912173;29;20052;-75
2023/04/17 07:19:56;;;;;;;41.92;25.58;;;;;;;3.69;100.00;101845.31;4914829;29;20058;-75
2023/04/17 07:22:22;;;;;;;39.78;24.60;;;;;;;3.81;100.00;101843.72;4914509;29;20132;-75
2023/04/17 07:24:52;;;;;;;62.25;27.77;;;;;;;3.75;100.00;101842.28;4913585;29;20044;-75
2023/04/17 07:27:18;;;;;;;43.25;24.77;;;;;;;3.85;100.00;101845.25;4913317;29;20056;-75
2023/04/17 07:29:51;;;;;;;39.80;24.40;;;;;;;3.85;100.00;101846.09;4912988;29;20051;-75
2023/04/17 07:32:18;;;;;;;41.22;25.15;;;;;;;3.90;100.00;101847.63;4912440;29;20103;-75
2023/04/17 07:34:44;;;;;;;43.40;24.67;;;;;;;3.91;100.00;101850.22;4913825;29;20048;-75
2023/04/17 07:37:11;;;;;;;43.22;24.77;;;;;;;4.07;100.00;101860.78;4897594;29;20048;-75
2023/04/17 07:39:37;;;;;;;44.58;25.42;;;;;;;4.03;100.00;101859.25;4913818;29;20055;-75
2023/04/17 07:42:07;;;;;;;39.95;24.90;;;;;;;3.99;100.00;101873.66;4913901;29;20497;-75
2023/04/17 07:44:34;;;;;;;40.20;24.80;;;;;;;3.94;100.00;101870.44;4913743;29;20111;-75
2023/04/17 07:47:00;;;;;;;44.55;23.40;;;;;;;3.76;100.00;101867.88;4914147;29;20048;-75
2023/04/17 07:49:27;;;;;;;36.38;23.83;;;;;;;3.82;100.00;101874.63;4914910;29;20051;-75
2023/04/17 07:51:54;;;;;;;34.97;22.40;;;;;;;3.96;100.00;101881.78;4932299;29;20036;-72
2023/04/17 07:54:21;;;;;;;35.90;23.08;;;;;;;3.85;100.00;101880.63;4935259;29;20075;-73
2023/04/17 07:56:48;;;;;;;41.75;24.65;;;;;;;3.82;100.00;101882.59;4936170;29;20548;-73
2023/04/17 07:59:17;;;;;;;49.00;25.65;;;;;;;3.73;100.00;101881.34;4936842;29;20052;-72
2023/04/17 08:01:44;;;;;;;40.40;25.13;;;;;;;3.83;100.00;101881.66;4936002;29;20052;-72
2023/04/17 08:04:11;;;;;;;44.33;25.05;;;;;;;3.93;100.00;101885.50;4936249;29;20028;-72
2023/04/17 08:06:38;;;;;;;46.90;24.58;;;;;;;3.81;100.00;101884.41;4935577;29;20056;-72
2023/04/17 08:09:04;;;;;;;42.75;24.92;;;;;;;3.91;100.00;101889.19;4929761;29;20044;-72
2023/04/17 08:11:31;;;;;;;36.80;23.58;;;;;;;3.86;100.00;101884.13;4936966;29;20071;-74
2023/04/17 08:14:11;;;;;;;45.55;25.10;;;;;;;3.76;100.00;101893.56;4939138;29;20043;-72
2023/04/17 08:16:38;;;;;;;34.67;24.98;;;;;;;3.97;100.00;101891.50;4934372;29;20048;-72
2023/04/17 08:19:04;;;;;;;37.13;24.13;;;;;;;3.93;100.00;101900.56;4940570;29;20108;-73
2023/04/17 08:21:31;;;;;;;44.15;25.02;;;;;;;3.95;100.00;101893.38;4937437;29;20043;-74
2023/04/17 08:23:58;;;;;;;38.17;22.77;;;;;;;3.99;100.00;101900.22;4917713;29;20044;-75
2023/04/17 08:26:24;;;;;;;40.30;24.00;;;;;;;4.04;100.00;101903.47;4916902;29;20040;-74
2023/04/17 08:28:52;;;;;;;41.40;24.40;;;;;;;4.06;100.00;101901.56;4917211;29;20485;-75
2023/04/17 08:31:19;;;;;;;40.92;25.67;;;;;;;4.05;100.00;101905.16;4915340;29;20083;-75
2023/04/17 08:33:45;;;;;;;43.42;26.08;;;;;;;4.05;100.00;101915.78;4916515;29;20048;-75
2023/04/17 08:36:12;;;;;;;38.30;24.83;;;;;;;4.11;100.00;101918.09;4916261;29;20420;-75
2023/04/17 08:38:39;;;;;;;38.35;23.60;;;;;;;4.23;100.00;101914.72;4925946;29;20179;-78
2023/04/17 08:41:12;;;;;;;36.85;21.58;;;;;;;4.28;100.00;101914.47;4926370;29;20060;-78
2023/04/17 08:43:39;;;;;;;32.78;20.63;;;;;;;4.28;100.00;101912.66;4933125;29;20056;-77
2023/04/17 08:46:06;;;;;;;38.22;22.98;;;;;;;4.54;100.00;101913.78;4934328;29;20108;-77
2023/04/17 08:48:33;;;;;;;42.63;21.08;;;;;;;4.84;100.00;101910.22;4932650;29;20052;-78
2023/04/17 08:51:01;;;;;;;35.47;21.25;;;;;;;4.98;100.00;101912.91;4935074;29;20067;-78
2023/04/17 08:53:28;;;;;;;29.40;19.42;;;;;;;5.04;100.00;101912.53;4933933;29;20028;-78
2023/04/17 08:55:57;;;;;;;31.52;22.45;;;;;;;4.82;100.00;101917.44;4933212;29;20060;-78
2023/04/17 08:58:25;;;;;;;37.88;22.50;;;;;;;5.32;100.00;101910.78;4933714;29;20054;-78
2023/04/17 09:00:54;;;;;;;38.67;22.83;;;;;;;5.39;100.00;101919.25;4933359;29;20091;-78
2023/04/17 09:03:21;;;;;;;31.48;21.27;;;;;;;4.90;100.00;101922.28;4933760;29;21557;-78
2023/04/17 09:05:48;;;;;;;47.03;23.17;;;;;;;4.69;100.00;101919.97;4933086;29;20084;-78
2023/04/17 09:08:19;;;;;;;36.55;22.65;;;;;;;4.74;100.00;101922.38;4934580;29;20111;-78
2023/04/17 09:10:47;;;;;;;38.50;21.42;;;;;;;4.63;100.00;101920.38;4934084;29;20062;-77
2023/04/17 09:13:18;;;;;;;43.53;23.02;;;;;;;4.61;100.00;101924.06;4936546;29;20044;-78
2023/04/17 09:16:01;;;;;;;34.33;21.10;;;;;;;4.66;100.00;101925.50;4937373;29;20129;-75
2023/04/17 09:18:30;;;;;;;38.67;22.92;;;;;;;4.73;100.00;101918.88;4936238;29;20059;-77
2023/04/17 09:21:00;;;;;;;42.53;23.00;;;;;;;4.99;100.00;101919.06;4925840;29;20143;-76
2023/04/17 09:23:29;;;;;;;37.40;22.13;;;;;;;5.50;100.00;101916.75;4935366;29;20101;-76
2023/04/17 09:26:06;;;;;;;29.55;20.17;;;;;;;5.53;100.00;101930.72;4927642;29;20108;-77
2023/04/17 09:28:38;;;;;;;34.08;21.85;;;;;;;5.42;100.00;101935.88;4929365;29;20509;-77
2023/04/17 09:31:23;;;;;;;38.90;20.92;;;;;;;5.11;100.00;101928.06;4913732;29;20044;-77
2023/04/17 09:34:06;;;;;;;39.63;21.15;;;;;;;4.98;100.00;101926.19;4922511;29;20067;-76
2023/04/17 09:36:35;;;;;;;35.42;21.35;;;;;;;4.96;100.00;101932.53;4923019;29;20123;-76
2023/04/17 09:39:14;;;;;;;37.50;20.88;;;;;;;4.83;100.00;101921.78;4921131;29;20055;-76
2023/04/17 09:41:41;;;;;;;40.47;21.63;;;;;;;5.11;100.00;101925.41;4913358;29;20079;-74
2023/04/17 09:44:11;;;;;;;40.38;21.33;;;;;;;5.58;100.00;101922.44;4916416;29;20075;-72
2023/04/17 09:46:44;;;;;;;42.15;20.38;;;;;;;5.56;100.00;101928.78;4915956;29;20056;-73
2023/04/17 09:49:17;;;;;;;30.10;20.80;;;;;;;5.45;100.00;101924.16;4916284;29;20474;-74
2023/04/17 09:51:45;;;;;;;33.50;20.02;;;;;;;5.58;100.00;101925.09;4915808;29;20366;-74
2023/04/17 09:54:13;;;;;;;30.83;19.33;;;;;;;5.79;100.00;101925.50;4916630;29;20139;-74
2023/04/17 09:56:41;;;;;;;28.00;18.52;;;;;;;5.59;100.00;101932.13;4915986;29;20083;-74
2023/04/17 09:59:08;;;;;;;27.60;17.13;;;;;;;6.41;100.00;101931.19;4911083;29;20074;-74
2023/04/17 10:01:36;;;;;;;24.75;17.13;;;;;;;7.70;100.00;101931.97;4917220;29;20052;-74
2023/04/17 10:04:04;;;;;;;22.40;15.00;;;;;;;7.09;100.00;101932.75;4915652;29;20064;-73
2023/04/17 10:06:32;;;;;;;32.22;14.80;;;;;;;6.72;100.00;101929.09;4916474;29;20096;-74
2023/04/17 10:08:59;;;;;;;22.05;14.00;;;;;;;6.53;100.00;101924.19;4916051;29;21468;-73
2023/04/17 10:11:32;;;;;;;21.13;15.45;;;;;;;6.42;100.00;101937.38;4919285;29;20044;-75
2023/04/17 10:14:10;;;;;;;23.88;14.57;;;;;;;6.45;100.00;101931.84;4913619;29;20138;-77
2023/04/17 10:16:39;;;;;;;26.92;15.40;;;;;;;6.26;100.00;101926.91;4917289;29;20057;-76
2023/04/17 10:19:26;;;;;;;23.88;14.35;;;;;;;6.19;100.00;101926.41;4916914;29;20485;-76
2023/04/17 10:22:14;;;;;;;27.50;15.35;;;;;;;6.15;100.00;101930.25;4915938;29;20052;-73
2023/04/17 10:24:41;;;;;;;22.80;14.45;;;;;;;6.07;100.00;101919.22;4913850;29;20127;-73
2023/04/17 10:27:40;;;;;;;24.48;13.73;;;;;;;6.00;100.00;101920.59;4914805;29;20143;-74
2023/04/17 10:30:11;;;;;;;22.98;13.88;;;;;;;5.94;100.00;101924.53;4871867;29;20343;-74
2023/04/17 10:32:40;;;;;;;24.15;13.77;;;;;;;6.95;100.00;101925.69;4913519;29;20070;-74
2023/04/17 10:35:16;;;;;;;27.20;13.23;;;;;;;7.58;100.00;101926.56;4912409;29;20051;-74
2023/04/17 10:37:52;;;;;;;24.30;13.27;;;;;;;8.00;100.00;101921.72;4914027;29;20048;-74
2023/04/17 10:40:22;;;;;;;17.55;12.45;;;;;;;8.48;100.00;101927.03;4912854;29;20056;-74
2023/04/17 10:43:16;;;;;;;18.13;12.10;;;;;;;8.33;100.00;101914.81;4914221;29;20107;-74
2023/04/17 10:46:11;;;;;;;22.15;12.75;;;;;;;8.83;100.00;101915.44;4909959;29;20473;-74
2023/04/17 10:48:51;;;;;;;26.05;14.00;;;;;;;8.62;100.00;101917.94;4906153;29;20440;-74
2023/04/17 10:51:25;;;;;;;17.92;11.20;;;;;;;9.25;100.00;101907.69;4913765;29;20044;-74
2023/04/17 10:53:59;;;;;;;19.63;12.55;;;;;;;9.64;100.00;101917.00;4914030;29;20162;-74
2023/04/17 10:56:29;;;;;;;18.20;11.60;;;;;;;8.97;100.00;101907.16;4914133;29;20044;-73
2023/04/17 10:59:04;;;;;;;21.80;11.85;;;;;;;8.44;100.00;101909.53;4910512;29;20070;-74
2023/04/17 11:01:46;;;;;;;20.75;12.20;;;;;;;7.83;100.00;101908.72;4913330;29;20052;-74
2023/04/17 11:04:25;;;;;;;20.90;12.10;;;;;;;7.96;100.00;101903.38;4913490;29;20051;-72
2023/04/17 11:06:53;;;;;;;19.35;13.43;;;;;;;7.70;100.00;101905.25;4913618;29;20059;-72
2023/04/17 11:09:21;;;;;;;22.08;13.23;;;;;;;8.00;100.00;101904.84;4912717;29;20047;-72
2023/04/17 11:11:47;;;;;;;20.40;12.88;;;;;;;8.11;100.00;101907.56;4910142;29;20436;-73
2023/04/17 11:14:19;;;;;;;22.23;12.02;;;;;;;7.32;100.00;101916.91;4913816;29;20130;-74